createdAt,value
2023-01-25T00:01:10.663Z,98047.53
2023-01-25T00:03:39.414Z,98142.09
2023-01-25T00:06:08.141Z,98095.94
2023-01-25T00:08:38.544Z,98097.56
2023-01-25T00:11:06.784Z,98141.78
2023-01-25T00:13:34.907Z,98051.84
2023-01-25T00:16:03.450Z,98120.94
2023-01-25T00:18:31.653Z,98181.25
2023-01-25T00:21:02.504Z,98172.66
2023-01-25T00:23:30.465Z,98193.06
2023-01-25T00:26:00.355Z,98193.19
2023-01-25T00:28:28.480Z,98201.34
2023-01-25T00:31:01.288Z,98216.06
2023-01-25T00:33:41.684Z,98122.34
2023-01-25T00:36:33.659Z,98232.44
2023-01-25T00:39:01.768Z,98242.44
2023-01-25T00:41:31.128Z,98250.78
2023-01-25T00:43:59.841Z,98168.63
2023-01-25T00:46:27.866Z,98251.75
2023-01-25T00:48:56.143Z,98240.50
2023-01-25T00:51:26.493Z,98240.06
2023-01-25T00:53:54.698Z,98218.50
2023-01-25T00:56:22.809Z,98234.50
2023-01-25T00:58:52.178Z,98283.69
2023-01-25T01:01:20.542Z,98223.94
2023-01-25T01:03:48.645Z,98242.44
2023-01-25T01:06:16.617Z,98261.19
2023-01-25T01:08:44.506Z,98234.50
2023-01-25T01:11:14.056Z,98288.84
2023-01-25T01:13:42.301Z,98295.63
2023-01-25T01:16:13.901Z,98309.38
2023-01-25T01:18:44.208Z,98307.28
2023-01-25T01:21:13.743Z,98261.47
2023-01-25T01:23:42.159Z,98334.25
2023-01-25T01:26:13.634Z,98313.03
2023-01-25T01:28:43.211Z,98347.16
2023-01-25T01:31:17.493Z,98349.78
2023-01-25T01:33:45.570Z,98358.66
2023-01-25T01:36:16.559Z,98330.00
2023-01-25T01:38:44.988Z,98285.38
2023-01-25T01:41:15.866Z,98357.25
2023-01-25T01:43:45.606Z,98355.56
2023-01-25T01:46:18.761Z,98387.69
2023-01-25T01:48:53.787Z,98374.72
2023-01-25T01:51:25.749Z,98394.53
2023-01-25T01:53:59.014Z,98413.44
2023-01-25T01:56:32.636Z,98362.31
2023-01-25T01:59:01.916Z,98415.09
2023-01-25T02:01:31.364Z,98426.34
2023-01-25T02:04:03.276Z,98401.66
2023-01-25T02:06:36.115Z,98445.63
2023-01-25T02:09:04.295Z,98410.34
2023-01-25T02:11:33.948Z,98410.56
2023-01-25T02:14:03.890Z,98444.09
2023-01-25T02:16:33.584Z,98438.56
2023-01-25T02:19:03.734Z,98465.38
2023-01-25T02:21:40.358Z,98392.75
2023-01-25T02:24:13.640Z,98439.94
2023-01-25T02:26:43.285Z,98470.38
2023-01-25T02:29:12.121Z,98460.34
2023-01-25T02:31:40.381Z,98470.38
2023-01-25T02:34:08.313Z,98481.50
2023-01-25T02:36:37.061Z,98480.66
2023-01-25T02:39:08.507Z,98463.44
2023-01-25T02:41:37.798Z,98475.66
2023-01-25T02:44:11.129Z,98482.34
2023-01-25T02:46:40.547Z,98497.91
2023-01-25T02:49:11.281Z,98490.38
2023-01-25T02:51:40.874Z,98498.75
2023-01-25T02:54:11.009Z,98497.06
2023-01-25T02:56:40.760Z,98490.97
2023-01-25T02:59:13.312Z,98510.13
2023-01-25T03:01:42.797Z,98520.44
2023-01-25T03:04:10.843Z,98521.16
2023-01-25T03:06:39.825Z,98536.84
2023-01-25T03:09:09.967Z,98542.13
2023-01-25T03:11:38.356Z,98522.81
2023-01-25T03:14:06.379Z,98536.84
2023-01-25T03:16:35.766Z,98537.69
2023-01-25T03:19:03.796Z,98542.13
2023-01-25T03:21:31.862Z,98537.69
2023-01-25T03:24:01.948Z,98553.25
2023-01-25T03:26:30.775Z,98540.31
2023-01-25T03:28:58.790Z,98550.59
2023-01-25T03:31:26.873Z,98544.63
2023-01-25T03:33:56.153Z,98543.66
2023-01-25T03:36:24.379Z,98546.28
2023-01-25T03:38:52.405Z,98539.34
2023-01-25T03:41:20.230Z,98547.97
2023-01-25T03:43:48.049Z,98562.69
2023-01-25T03:46:15.994Z,98549.66
2023-01-25T03:48:43.875Z,98553.94
2023-01-25T03:51:14.752Z,98553.25
2023-01-25T03:53:42.669Z,98547.13
2023-01-25T03:56:17.578Z,98567.13
2023-01-25T03:58:45.756Z,98572.16
2023-01-25T04:01:14.257Z,98551.31
2023-01-25T04:03:42.326Z,98561.16
2023-01-25T04:06:10.314Z,98552.41
2023-01-25T04:08:39.800Z,98559.34
2023-01-25T04:11:09.499Z,98551.56
2023-01-25T04:13:38.478Z,98559.47
2023-01-25T04:16:07.731Z,98553.25
2023-01-25T04:18:35.660Z,98566.31
2023-01-25T04:21:03.571Z,98567.97
2023-01-25T04:23:31.699Z,98575.75
2023-01-25T04:26:03.252Z,98568.81
2023-01-25T04:28:31.267Z,98558.53
2023-01-25T04:30:59.545Z,98570.63
2023-01-25T04:33:28.245Z,98566.69
2023-01-25T04:35:56.181Z,98582.69
2023-01-25T04:38:24.033Z,98567.97
2023-01-25T04:40:52.002Z,98582.56
2023-01-25T04:43:21.946Z,98585.09
2023-01-25T04:45:50.040Z,98577.44
2023-01-25T04:48:18.139Z,98581.75
2023-01-25T04:50:46.670Z,98593.00
2023-01-25T04:53:14.947Z,98587.84
2023-01-25T04:55:46.463Z,98594.66
2023-01-25T04:58:14.872Z,98586.31
2023-01-25T05:00:44.114Z,98580.78
2023-01-25T05:03:11.972Z,98589.66
2023-01-25T05:05:39.821Z,98585.34
2023-01-25T05:08:07.700Z,98584.38
2023-01-25T05:10:35.539Z,98595.63
2023-01-25T05:13:03.606Z,98583.41
2023-01-25T05:15:31.525Z,98597.31
2023-01-25T05:18:00.803Z,98589.41
2023-01-25T05:20:29.549Z,98602.59
2023-01-25T05:22:57.380Z,98569.06
2023-01-25T05:25:42.965Z,98563.78
2023-01-25T05:28:10.947Z,98573.38
2023-01-25T05:30:38.989Z,98580.19
2023-01-25T05:33:08.448Z,98571.56
2023-01-25T05:35:36.372Z,98578.53
2023-01-25T05:38:04.276Z,98578.41
2023-01-25T05:40:32.252Z,98584.38
2023-01-25T05:43:00.830Z,98592.16
2023-01-25T05:45:30.086Z,98569.06
2023-01-25T05:47:59.998Z,98591.31
2023-01-25T05:50:29.598Z,98567.13
2023-01-25T05:52:57.464Z,98592.28
2023-01-25T05:55:27.816Z,98578.53
2023-01-25T05:57:57.042Z,98585.47
2023-01-25T06:00:25.064Z,98596.59
2023-01-25T06:02:53.016Z,98575.19
2023-01-25T06:05:20.970Z,98598.28
2023-01-25T06:07:50.351Z,98593.97
2023-01-25T06:10:18.202Z,98576.72
2023-01-25T06:12:46.144Z,98599.94
2023-01-25T06:15:13.974Z,98605.22
2023-01-25T06:17:41.917Z,98593.97
2023-01-25T06:20:11.095Z,98602.72
2023-01-25T06:22:39.050Z,98611.22
2023-01-25T06:25:09.987Z,98612.16
2023-01-25T06:27:37.932Z,98623.31
2023-01-25T06:30:07.787Z,98600.91
2023-01-25T06:32:35.731Z,98623.44
2023-01-25T06:35:03.624Z,98607.84
2023-01-25T06:37:31.523Z,98605.22
2023-01-25T06:39:59.383Z,98613.97
2023-01-25T06:42:28.752Z,98593.25
2023-01-25T06:44:56.669Z,98615.50
2023-01-25T06:47:24.694Z,98603.53
2023-01-25T06:49:52.562Z,98562.13
2023-01-25T06:52:20.421Z,98591.59
2023-01-25T06:54:48.323Z,98600.91
2023-01-25T06:57:16.313Z,98626.06
2023-01-25T06:59:45.713Z,98630.25
2023-01-25T07:02:16.223Z,98644.03
2023-01-25T07:04:44.050Z,98643.78
2023-01-25T07:07:11.878Z,98658.66
2023-01-25T07:09:39.788Z,98672.56
2023-01-25T07:12:08.317Z,98673.41
2023-01-25T07:14:36.336Z,98677.59
2023-01-25T07:17:05.707Z,98682.88
2023-01-25T07:19:33.533Z,98690.66
2023-01-25T07:22:01.365Z,98700.94
2023-01-25T07:24:29.903Z,98719.06
2023-01-25T07:26:58.027Z,98722.53
2023-01-25T07:29:25.880Z,98724.22
2023-01-25T07:31:53.872Z,98725.19
2023-01-25T07:34:23.395Z,98737.16
2023-01-25T07:36:51.336Z,98741.59
2023-01-25T07:39:19.348Z,98757.06
2023-01-25T07:41:47.256Z,98745.78
2023-01-25T07:44:15.307Z,98734.66
2023-01-25T07:46:43.484Z,98741.59
2023-01-25T07:49:11.253Z,98748.56
2023-01-25T07:51:40.549Z,98749.41
2023-01-25T07:54:10.994Z,98748.31
2023-01-25T07:56:40.624Z,98774.22
2023-01-25T07:59:09.302Z,98777.78
2023-01-25T08:01:37.640Z,98781.19
2023-01-25T08:04:06.300Z,98781.19
2023-01-25T08:06:39.256Z,98789.81
2023-01-25T08:09:12.121Z,98797.72
2023-01-25T08:11:40.295Z,98795.09
2023-01-25T08:14:09.206Z,98794.13
2023-01-25T08:16:37.144Z,98818.34
2023-01-25T08:19:05.737Z,98832.97
2023-01-25T08:21:35.295Z,98841.72
2023-01-25T08:24:05.020Z,98854.66
2023-01-25T08:26:35.671Z,98854.53
2023-01-25T08:29:03.851Z,98879.59
2023-01-25T08:31:33.841Z,98875.41
2023-01-25T08:34:02.579Z,98888.38
2023-01-25T08:36:30.799Z,98896.16
2023-01-25T08:39:00.969Z,98912.50
2023-01-25T08:41:30.709Z,98920.19
2023-01-25T08:44:00.336Z,98912.38
2023-01-25T08:46:31.587Z,98912.38
2023-01-25T08:49:01.541Z,98917.66
2023-01-25T08:51:31.316Z,98920.31
2023-01-25T08:54:02.634Z,98921.00
2023-01-25T08:56:30.329Z,98919.34
2023-01-25T08:58:58.073Z,98909.03
2023-01-25T09:01:27.193Z,98919.34
2023-01-25T09:03:56.061Z,98917.66
2023-01-25T09:06:23.886Z,98909.88
2023-01-25T09:08:51.744Z,98926.28
2023-01-25T09:11:21.180Z,98929.66
2023-01-25T09:13:49.518Z,98937.56
2023-01-25T09:16:22.741Z,98948.84
2023-01-25T09:18:51.867Z,98966.13
2023-01-25T09:21:20.464Z,98952.22
2023-01-25T09:23:51.379Z,98965.88
2023-01-25T09:26:32.528Z,98962.53
2023-01-25T09:29:00.675Z,98959.16
2023-01-25T09:31:29.551Z,98953.88
2023-01-25T09:33:59.062Z,98970.19
2023-01-25T09:36:27.168Z,98958.91
2023-01-25T09:38:57.533Z,98946.94
2023-01-25T09:41:43.037Z,98979.81
2023-01-25T09:44:28.297Z,98974.53
2023-01-25T09:46:59.688Z,98953.03
2023-01-25T09:49:52.343Z,98976.44
2023-01-25T09:52:40.283Z,98967.81
2023-01-25T09:55:14.956Z,98986.75
2023-01-25T09:57:48.161Z,99005.72
2023-01-25T10:00:20.790Z,99016.28
2023-01-25T10:02:54.138Z,99008.38
2023-01-25T10:05:28.232Z,99036.97
2023-01-25T10:07:59.356Z,99046.44
2023-01-25T10:10:34.766Z,99043.09
2023-01-25T10:13:04.119Z,99038.63
2023-01-25T10:15:37.140Z,99050.66
2023-01-25T10:18:18.184Z,99057.59
2023-01-25T10:20:53.217Z,99066.25
2023-01-25T10:23:53.910Z,99067.94
2023-01-25T10:26:26.601Z,99077.53
2023-01-25T10:29:03.611Z,99082.69
2023-01-25T10:31:40.780Z,99081.84
2023-01-25T10:34:19.443Z,99095.53
2023-01-25T10:36:52.408Z,99120.75
2023-01-25T10:39:21.191Z,99119.81
2023-01-25T10:41:52.372Z,99118.97
2023-01-25T10:44:24.490Z,99118.13
2023-01-25T10:46:58.477Z,99091.34
2023-01-25T10:49:30.564Z,99071.53
2023-01-25T10:52:14.249Z,99084.50
2023-01-25T10:54:42.224Z,99088.81
2023-01-25T10:57:15.639Z,99081.03
2023-01-25T10:59:47.006Z,99079.22
2023-01-25T11:02:41.088Z,99088.81
2023-01-25T11:05:30.108Z,99083.66
2023-01-25T11:08:00.885Z,99080.19
2023-01-25T11:10:31.740Z,99062.06
2023-01-25T11:13:22.792Z,99075.84
2023-01-25T11:15:52.930Z,99062.88
2023-01-25T11:18:24.143Z,99073.22
2023-01-25T11:21:07.030Z,99076.81
2023-01-25T11:23:36.294Z,99056.75
2023-01-25T11:26:15.964Z,99060.38
2023-01-25T11:28:44.596Z,99045.59
2023-01-25T11:31:14.788Z,99017.97
2023-01-25T11:33:43.286Z,99015.56
2023-01-25T11:36:20.983Z,99010.16
2023-01-25T11:39:01.076Z,99031.88
2023-01-25T11:41:38.235Z,99002.50
2023-01-25T11:44:40.808Z,99001.66
2023-01-25T11:47:18.851Z,98993.97
2023-01-25T11:49:58.606Z,98971.41
2023-01-25T11:52:36.290Z,98910.00
2023-01-25T11:55:21.896Z,98912.63
2023-01-25T11:58:08.058Z,98910.94
2023-01-25T12:00:57.642Z,98911.78
2023-01-25T12:04:10.964Z,98897.00
2023-01-25T12:06:51.116Z,98881.41
2023-01-25T12:09:31.699Z,98866.06
2023-01-25T12:12:12.137Z,98865.09
2023-01-25T12:14:55.693Z,98866.06
2023-01-25T12:17:32.833Z,98828.19
2023-01-25T12:20:23.874Z,98822.91
2023-01-25T12:23:06.775Z,98808.41
2023-01-25T12:25:44.394Z,98829.72
2023-01-25T12:28:20.800Z,98824.72
2023-01-25T12:30:54.874Z,98829.03
2023-01-25T12:33:28.847Z,98820.50
2023-01-25T12:36:02.928Z,98796.06
2023-01-25T12:38:38.057Z,98808.16
2023-01-25T12:41:15.461Z,98781.41
2023-01-25T12:43:51.573Z,98785.13
2023-01-25T12:46:27.615Z,98784.03
2023-01-25T12:49:00.718Z,98790.06
2023-01-25T12:51:35.555Z,98774.44
2023-01-25T12:54:13.007Z,98782.34
2023-01-25T12:56:47.830Z,98774.56
2023-01-25T12:59:25.758Z,98766.91
2023-01-25T13:01:57.929Z,98765.94
2023-01-25T13:04:51.047Z,98759.09
2023-01-25T13:07:25.672Z,98778.03
2023-01-25T13:10:00.510Z,98777.09
2023-01-25T13:12:28.419Z,98761.53
2023-01-25T13:14:57.750Z,98782.34
2023-01-25T13:17:35.482Z,98779.72
2023-01-25T13:20:06.564Z,98769.41
2023-01-25T13:22:59.102Z,98790.06
2023-01-25T13:25:27.827Z,98779.72
2023-01-25T13:28:49.634Z,98777.09
2023-01-25T13:31:52.051Z,98799.66
2023-01-25T13:34:54.317Z,98788.34
2023-01-25T13:37:24.960Z,98781.41
2023-01-25T13:39:54.980Z,98787.50
2023-01-25T13:42:25.415Z,98801.44
2023-01-25T13:44:57.096Z,98783.06
2023-01-25T13:47:30.075Z,98782.47
2023-01-25T13:50:03.669Z,98789.22
2023-01-25T13:52:32.343Z,98794.50
2023-01-25T13:55:01.008Z,98776.38
2023-01-25T13:57:30.760Z,98761.50
2023-01-25T14:00:11.704Z,98791.94
2023-01-25T14:02:42.984Z,98797.13
2023-01-25T14:05:19.718Z,98791.72
2023-01-25T14:07:50.211Z,98775.53
2023-01-25T14:10:24.445Z,98789.22
2023-01-25T14:12:55.625Z,98788.34
2023-01-25T14:15:26.255Z,98783.06
2023-01-25T14:18:13.530Z,98771.94
2023-01-25T14:20:42.495Z,98764.13
2023-01-25T14:23:23.094Z,98783.06
2023-01-25T14:25:51.563Z,98763.56
2023-01-25T14:28:19.820Z,98774.69
2023-01-25T14:30:53.024Z,98790.06
2023-01-25T14:33:27.106Z,98779.72
2023-01-25T14:36:01.601Z,98789.22
2023-01-25T14:38:34.963Z,98776.13
2023-01-25T14:41:10.476Z,98788.34
2023-01-25T14:43:39.707Z,98776.13
2023-01-25T14:46:28.248Z,98742.56
2023-01-25T14:49:25.329Z,98745.19
2023-01-25T14:52:00.447Z,98746.53
2023-01-25T14:54:32.260Z,98761.75
2023-01-25T14:57:03.355Z,98754.66
2023-01-25T14:59:36.097Z,98760.78
2023-01-25T15:02:16.838Z,98753.00
2023-01-25T15:04:55.601Z,98738.25
2023-01-25T15:07:43.688Z,98727.94
2023-01-25T15:10:20.681Z,98714.25
2023-01-25T15:13:21.256Z,98726.28
2023-01-25T15:15:54.727Z,98733.22
2023-01-25T15:18:45.368Z,98734.06
2023-01-25T15:21:16.508Z,98719.31
2023-01-25T15:23:45.919Z,98706.34
2023-01-25T15:26:16.440Z,98720.28
2023-01-25T15:28:44.362Z,98719.53
2023-01-25T15:31:17.968Z,98691.75
2023-01-25T15:33:46.390Z,98697.97
2023-01-25T15:36:17.680Z,98710.78
2023-01-25T15:38:45.564Z,98685.88
2023-01-25T15:41:14.228Z,98664.53
2023-01-25T15:43:43.213Z,98678.09
2023-01-25T15:46:17.815Z,98672.81
2023-01-25T15:48:47.460Z,98656.38
2023-01-25T15:51:16.787Z,98675.44
2023-01-25T15:53:44.713Z,98664.16
2023-01-25T15:56:15.713Z,98652.31
2023-01-25T15:58:47.000Z,98643.56
2023-01-25T16:01:15.079Z,98646.91
2023-01-25T16:03:42.937Z,98629.91
2023-01-25T16:06:33.088Z,98647.88
2023-01-25T16:09:01.817Z,98655.53
2023-01-25T16:11:29.701Z,98635.78
2023-01-25T16:13:58.027Z,98644.41
2023-01-25T16:16:27.166Z,98645.25
2023-01-25T16:18:55.180Z,98640.22
2023-01-25T16:21:25.735Z,98650.50
2023-01-25T16:23:53.699Z,98661.66
2023-01-25T16:26:24.637Z,98636.63
2023-01-25T16:28:52.794Z,98672.91
2023-01-25T16:31:31.866Z,98653.88
2023-01-25T16:34:00.938Z,98655.53
2023-01-25T16:36:31.462Z,98676.38
2023-01-25T16:39:09.878Z,98658.16
2023-01-25T16:41:38.480Z,98663.31
2023-01-25T16:44:06.396Z,98640.94
2023-01-25T16:46:34.919Z,98671.94
2023-01-25T16:49:04.786Z,98672.19
2023-01-25T16:51:34.571Z,98662.50
2023-01-25T16:54:02.563Z,98648.84
2023-01-25T16:56:32.174Z,98611.00
2023-01-25T16:59:02.943Z,98630.75
2023-01-25T17:01:31.198Z,98648.00
2023-01-25T17:03:59.364Z,98639.13
2023-01-25T17:06:29.477Z,98657.34
2023-01-25T17:09:02.149Z,98673.03
2023-01-25T17:11:33.218Z,98654.69
2023-01-25T17:14:03.039Z,98671.38
2023-01-25T17:16:31.785Z,98659.13
2023-01-25T17:19:01.292Z,98662.34
2023-01-25T17:21:29.783Z,98687.56
2023-01-25T17:24:00.206Z,98674.72
2023-01-25T17:26:29.754Z,98653.03
2023-01-25T17:28:59.203Z,98679.75
2023-01-25T17:31:29.378Z,98672.91
2023-01-25T17:33:58.060Z,98659.84
2023-01-25T17:36:26.217Z,98669.44
2023-01-25T17:38:54.728Z,98676.38
2023-01-25T17:41:25.280Z,98672.81
2023-01-25T17:43:53.414Z,98666.94
2023-01-25T17:46:25.412Z,98661.66
2023-01-25T17:48:53.552Z,98631.59
2023-01-25T17:51:24.740Z,98658.31
2023-01-25T17:53:52.751Z,98659.13
2023-01-25T17:56:20.932Z,98653.88
2023-01-25T17:58:50.035Z,98679.75
2023-01-25T18:01:19.865Z,98657.59
2023-01-25T18:03:50.309Z,98662.50
2023-01-25T18:06:20.164Z,98651.34
2023-01-25T18:08:49.963Z,98659.97
2023-01-25T18:11:20.396Z,98650.50
2023-01-25T18:13:51.250Z,98661.66
2023-01-25T18:16:21.576Z,98665.00
2023-01-25T18:18:50.670Z,98658.16
2023-01-25T18:21:24.212Z,98674.72
2023-01-25T18:23:53.708Z,98663.31
2023-01-25T18:26:25.037Z,98653.03
2023-01-25T18:28:59.178Z,98654.81
2023-01-25T18:31:27.732Z,98610.75
2023-01-25T18:33:55.627Z,98590.16
2023-01-25T18:36:23.370Z,98641.06
2023-01-25T18:38:51.161Z,98655.66
2023-01-25T18:41:18.992Z,98638.53
2023-01-25T18:43:49.724Z,98609.91
2023-01-25T18:46:18.930Z,98628.00
2023-01-25T18:48:47.235Z,98638.28
2023-01-25T18:51:18.409Z,98619.38
2023-01-25T18:53:47.614Z,98617.81
2023-01-25T18:56:17.407Z,98616.03
2023-01-25T18:58:46.352Z,98626.31
2023-01-25T19:01:16.263Z,98601.28
2023-01-25T19:03:49.745Z,98626.56
2023-01-25T19:06:18.547Z,98629.66
2023-01-25T19:08:51.839Z,98610.75
2023-01-25T19:11:22.008Z,98640.22
2023-01-25T19:13:50.520Z,98608.25
2023-01-25T19:16:20.636Z,98600.47
2023-01-25T19:18:52.107Z,98623.81
2023-01-25T19:21:21.899Z,98633.13
2023-01-25T19:23:49.834Z,98594.47
2023-01-25T19:26:20.145Z,98595.19
2023-01-25T19:28:48.912Z,98618.53
2023-01-25T19:31:18.988Z,98602.13
2023-01-25T19:33:47.606Z,98610.75
2023-01-25T19:36:19.289Z,98612.41
2023-01-25T19:38:48.924Z,98611.72
2023-01-25T19:41:18.970Z,98610.03
2023-01-25T19:43:47.153Z,98600.47
2023-01-25T19:46:16.788Z,98579.03
2023-01-25T19:48:47.670Z,98584.88
2023-01-25T19:51:19.828Z,98564.31
2023-01-25T19:53:54.404Z,98567.66
2023-01-25T19:56:22.616Z,98567.66
2023-01-25T19:58:50.846Z,98552.09
2023-01-25T20:01:20.701Z,98562.50
2023-01-25T20:03:49.542Z,98546.06
2023-01-25T20:06:20.828Z,98534.38
2023-01-25T20:08:49.013Z,98516.16
2023-01-25T20:11:19.629Z,98528.97
2023-01-25T20:13:48.506Z,98534.94
2023-01-25T20:16:17.668Z,98515.91
2023-01-25T20:18:45.976Z,98510.91
2023-01-25T20:21:15.493Z,98516.03
2023-01-25T20:23:46.681Z,98492.00
2023-01-25T20:26:17.738Z,98495.34
2023-01-25T20:28:47.707Z,98479.91
2023-01-25T20:31:21.160Z,98485.03
2023-01-25T20:33:49.275Z,98477.25
2023-01-25T20:36:17.757Z,98451.69
2023-01-25T20:38:47.464Z,98426.66
2023-01-25T20:41:18.282Z,98411.09
2023-01-25T20:43:50.477Z,98386.22
2023-01-25T20:46:19.656Z,98395.53
2023-01-25T20:48:47.915Z,98374.03
2023-01-25T20:51:17.321Z,98341.38
2023-01-25T20:53:47.489Z,98343.06
2023-01-25T20:56:16.252Z,98341.25
2023-01-25T20:58:45.913Z,98329.19
2023-01-25T21:01:15.104Z,98332.66
2023-01-25T21:03:42.965Z,98350.00
2023-01-25T21:06:12.167Z,98331.81
2023-01-25T21:08:40.448Z,98338.88
2023-01-25T21:11:10.198Z,98349.16
2023-01-25T21:13:38.580Z,98336.94
2023-01-25T21:16:10.370Z,98347.75
2023-01-25T21:18:39.453Z,98334.44
2023-01-25T21:21:08.857Z,98351.66
2023-01-25T21:23:38.543Z,98344.72
2023-01-25T21:26:07.472Z,98329.31
2023-01-25T21:28:36.629Z,98325.84
2023-01-25T21:31:12.053Z,98337.91
2023-01-25T21:33:40.316Z,98346.66
2023-01-25T21:36:11.543Z,98338.03
2023-01-25T21:38:40.252Z,98315.31
2023-01-25T21:41:11.975Z,98316.38
2023-01-25T21:43:58.840Z,98327.63
2023-01-25T21:46:28.567Z,98318.88
2023-01-25T21:49:15.734Z,98309.44
2023-01-25T21:51:49.559Z,98305.25
2023-01-25T21:54:18.521Z,98309.44
2023-01-25T21:56:47.540Z,98328.56
2023-01-25T21:59:17.018Z,98282.91
2023-01-25T22:01:45.877Z,98297.47
2023-01-25T22:04:15.282Z,98310.25
2023-01-25T22:06:43.855Z,98275.00
2023-01-25T22:09:13.784Z,98273.34
2023-01-25T22:11:41.716Z,98301.78
2023-01-25T22:14:09.709Z,98270.00
2023-01-25T22:16:38.795Z,98283.59
2023-01-25T22:19:06.571Z,98286.13
2023-01-25T22:21:34.623Z,98296.53
2023-01-25T22:24:04.658Z,98279.31
2023-01-25T22:26:43.784Z,98281.94
2023-01-25T22:29:13.685Z,98272.63
2023-01-25T22:31:43.944Z,98250.16
2023-01-25T22:34:11.970Z,98263.06
2023-01-25T22:36:39.698Z,98259.59
2023-01-25T22:39:07.864Z,98281.22
2023-01-25T22:41:38.468Z,98285.53
2023-01-25T22:44:06.402Z,98276.94
2023-01-25T22:46:34.604Z,98265.56
2023-01-25T22:49:04.736Z,98264.03
2023-01-25T22:51:33.301Z,98268.31
2023-01-25T22:54:01.547Z,98288.03
2023-01-25T22:56:32.062Z,98256.97
2023-01-25T22:59:00.674Z,98271.66
2023-01-25T23:01:29.909Z,98264.72
2023-01-25T23:03:58.288Z,98263.06
2023-01-25T23:06:29.429Z,98268.91
2023-01-25T23:08:59.808Z,98288.88
2023-01-25T23:11:35.812Z,98284.69
2023-01-25T23:14:21.997Z,98270.00
2023-01-25T23:16:51.381Z,98256.97
2023-01-25T23:19:18.396Z,98243.34
2023-01-25T23:21:47.479Z,98239.19
2023-01-25T23:24:15.373Z,98230.31
2023-01-25T23:26:46.356Z,98251.13
2023-01-25T23:29:14.629Z,98259.47
2023-01-25T23:31:42.658Z,98276.66
2023-01-25T23:34:12.692Z,98285.53
2023-01-25T23:36:42.275Z,98269.88
2023-01-25T23:39:14.654Z,98278.59
2023-01-25T23:41:42.362Z,98265.56
2023-01-25T23:44:10.133Z,98243.47
2023-01-25T23:46:37.986Z,98224.34
2023-01-25T23:49:05.769Z,98218.38
2023-01-25T23:51:33.523Z,98229.63
2023-01-25T23:54:01.342Z,98229.47
2023-01-25T23:56:30.511Z,98230.56
2023-01-25T23:58:58.579Z,98226.16
